Messwerte Marion Island

Temperatur

Temperatur
°C
1575550800 15.00 15.00 11
1575554400 16.00 16.00 11
1575558000 17.00 17.00 11
1575561600 18.00 18.00
1575565200 19.00 19.00
1575568800 20.00 20.00 12
1575572400 21.00 21.00
1575576000 22.00 22.00
1575579600 23.00 23.00 9
1575583200 0.00 0.00
1575586800 1.00 1.00
1575590400 2.00 2.00 9
1575594000 3.00 3.00
1575597600 4.00 4.00
1575601200 5.00 5.00 8
1575604800 6.00 6.00
1575608400 7.00 7.00
1575612000 8.00 8.00 9
1575615600 9.00 9.00 11
1575619200 10.00 10.00 11
1575622800 11.00 11.00 11
1575626400 12.00 12.00 11
1575630000 13.00 13.00 10
1575633600 14.00 14.00 10

Aktuellste Messwerte

Wettercharakter
Wetter: wechselnd bewölkt
Temperatur
10 °C
Feuchtigkeit
80 %
Wind
15 km/hWindrichtung: Nord
Böen
35 km/h
Luftdruck
995 hPa
Messzeit: 6. Dezember 2019, 14.00Datenquelle: METAR

Wind

Windrichtung Böen Mittelwind
° km/h km/h
1575550800 15.00 14.00 - 15.00 250° 105 65
1575554400 16.00 15.00 - 16.00 250° 85 60
1575558000 17.00 16.00 - 17.00 270° 75 45
1575561600 18.00 17.00 - 18.00
1575565200 19.00 18.00 - 19.00
1575568800 20.00 19.00 - 20.00 270° 85 60
1575572400 21.00 20.00 - 21.00
1575576000 22.00 21.00 - 22.00
1575579600 23.00 22.00 - 23.00 270° 100 70
1575583200 0.00 23.00 - 0.00
1575586800 1.00 0.00 - 1.00
1575590400 2.00 1.00 - 2.00 260° 100 70
1575594000 3.00 2.00 - 3.00
1575597600 4.00 3.00 - 4.00
1575601200 5.00 4.00 - 5.00 240° 110 75
1575604800 6.00 5.00 - 6.00
1575608400 7.00 6.00 - 7.00
1575612000 8.00 7.00 - 8.00 260° 85 50
1575615600 9.00 8.00 - 9.00 320° 30
1575619200 10.00 9.00 - 10.00 70° 15
1575622800 11.00 10.00 - 11.00 340° 15
1575626400 12.00 11.00 - 12.00 150° 15
1575630000 13.00 12.00 - 13.00 230° 45 15
1575633600 14.00 13.00 - 14.00 360° 35 15

Ihre Wetterstation

Fehlt Ihre Wetterstation auf unserem Portal?

Schreiben Sie an network@meteonews.ch

Klima

Wann ist es am wärmsten? Wann regnet es am wenigsten? Unsere Klimadaten geben Auskunft.